Time;durP1;ratioP1;P1;durP2;ratioP2;P2;SDS_P1;SDS_P2;PMS_P1;PMS_P2;Temp;Humidity;BMP_temperature;BMP_pressure;BME280_temperature;BME280_humidity;BME280_pressure;Samples;Min_cycle;Max_cycle;Signal;HPM_P1;HPM_P2
2023/12/31 00:00:23;;;;;;;3.47;1.60;;;20.00;70.50;;;;;;5127027;27;20557;-62
2023/12/31 00:02:50;;;;;;;2.80;1.15;;;19.90;70.40;;;;;;5126728;27;20072;-63
2023/12/31 00:05:16;;;;;;;3.15;1.05;;;19.80;70.80;;;;;;5127781;27;20103;-63
2023/12/31 00:07:43;;;;;;;5.38;1.50;;;19.80;71.00;;;;;;5126316;27;20091;-62
2023/12/31 00:10:09;;;;;;;4.25;1.27;;;19.70;71.20;;;;;;5127710;27;20075;-61
2023/12/31 00:12:36;;;;;;;8.23;2.10;;;19.70;72.10;;;;;;5126049;27;20072;-62
2023/12/31 00:15:06;;;;;;;6.32;1.63;;;19.70;72.60;;;;;;5127281;27;20071;-62
2023/12/31 00:17:33;;;;;;;6.20;1.60;;;19.60;73.30;;;;;;5127351;27;20120;-61
2023/12/31 00:19:59;;;;;;;6.05;2.15;;;19.50;73.60;;;;;;5126755;27;20064;-62
2023/12/31 00:22:26;;;;;;;3.38;1.40;;;19.50;72.70;;;;;;5126827;27;20067;-62
2023/12/31 00:24:54;;;;;;;4.50;1.60;;;19.40;72.20;;;;;;5128365;27;20103;-63
2023/12/31 00:27:21;;;;;;;3.35;1.42;;;19.40;71.60;;;;;;5127436;27;20075;-65
2023/12/31 00:29:48;;;;;;;4.10;1.63;;;19.40;71.60;;;;;;5126022;27;20266;-65
2023/12/31 00:32:18;;;;;;;6.72;2.05;;;19.30;72.40;;;;;;5126274;27;20087;-62
2023/12/31 00:34:45;;;;;;;7.15;1.17;;;19.30;71.80;;;;;;5128493;27;20072;-64
2023/12/31 00:37:11;;;;;;;4.05;1.40;;;19.20;71.30;;;;;;5125906;27;20086;-63
2023/12/31 00:39:37;;;;;;;3.58;1.52;;;19.20;71.70;;;;;;5125005;27;20080;-63
2023/12/31 00:42:05;;;;;;;4.97;1.70;;;19.10;71.30;;;;;;5127745;27;20163;-65
2023/12/31 00:44:32;;;;;;;8.13;2.30;;;19.10;71.50;;;;;;5127184;27;20126;-64
2023/12/31 00:47:01;;;;;;;10.90;2.22;;;19.10;71.70;;;;;;5126122;27;20126;-64
2023/12/31 00:49:28;;;;;;;4.78;2.17;;;19.00;71.10;;;;;;5125770;27;20082;-65
2023/12/31 00:51:55;;;;;;;8.48;2.17;;;19.00;70.70;;;;;;5127533;27;20075;-60
2023/12/31 00:54:21;;;;;;;9.65;2.05;;;19.00;70.30;;;;;;5126817;27;20087;-66
2023/12/31 00:56:48;;;;;;;10.52;1.90;;;18.90;69.90;;;;;;5125073;27;20076;-64
2023/12/31 00:59:16;;;;;;;7.00;1.90;;;18.90;70.00;;;;;;5127907;27;20440;-65
2023/12/31 01:01:42;;;;;;;6.38;1.80;;;18.90;70.00;;;;;;5126590;27;20067;-65
2023/12/31 01:04:09;;;;;;;9.52;2.20;;;18.80;70.50;;;;;;5127072;27;21011;-64
2023/12/31 01:06:35;;;;;;;13.02;1.85;;;18.80;70.90;;;;;;5125156;27;20422;-65
2023/12/31 01:09:02;;;;;;;15.15;2.60;;;18.70;71.40;;;;;;5126588;27;20474;-64
2023/12/31 01:11:28;;;;;;;7.97;2.05;;;18.60;71.90;;;;;;5124426;27;20076;-64
2023/12/31 01:13:55;;;;;;;9.20;2.45;;;18.60;72.90;;;;;;5125540;27;20121;-63
2023/12/31 01:16:21;;;;;;;5.63;2.10;;;18.50;72.50;;;;;;5124487;27;20525;-63
2023/12/31 01:18:48;;;;;;;7.18;2.65;;;18.40;72.90;;;;;;5123154;27;20508;-63
2023/12/31 01:21:14;;;;;;;13.95;3.55;;;18.30;73.10;;;;;;5127447;27;20068;-62
2023/12/31 01:23:41;;;;;;;8.57;3.08;;;18.30;73.60;;;;;;5127199;28;20155;-61
2023/12/31 01:26:07;;;;;;;10.38;3.90;;;18.30;74.00;;;;;;5126190;28;20068;-61
2023/12/31 01:28:34;;;;;;;22.25;4.35;;;18.30;74.40;;;;;;5126257;28;20608;-60
2023/12/31 01:31:00;;;;;;;14.52;3.45;;;18.20;74.50;;;;;;5126194;28;20080;-61
2023/12/31 01:33:27;;;;;;;14.55;3.10;;;18.20;74.80;;;;;;5125605;28;20174;-60
2023/12/31 01:35:54;;;;;;;12.23;2.70;;;18.20;74.80;;;;;;5105801;28;20502;-60
2023/12/31 01:38:20;;;;;;;8.75;3.13;;;18.20;75.00;;;;;;5124996;28;20525;-59
2023/12/31 01:40:53;;;;;;;11.57;2.65;;;18.20;75.20;;;;;;5125503;28;20105;-60
2023/12/31 01:43:23;;;;;;;5.85;2.58;;;18.20;75.80;;;;;;5126607;28;20080;-60
2023/12/31 01:45:49;;;;;;;5.72;2.33;;;18.20;76.20;;;;;;5107852;28;20565;-60
2023/12/31 01:48:16;;;;;;;10.43;2.50;;;18.20;76.50;;;;;;5127087;28;20123;-61
2023/12/31 01:50:43;;;;;;;3.88;2.15;;;18.10;76.70;;;;;;5125263;28;20587;-60
2023/12/31 01:53:12;;;;;;;7.38;2.42;;;18.10;77.00;;;;;;5127381;28;20445;-60
2023/12/31 01:55:38;;;;;;;7.55;2.38;;;18.10;77.50;;;;;;5126491;28;20497;-61
2023/12/31 01:58:05;;;;;;;8.85;2.97;;;18.10;78.20;;;;;;5125113;28;20073;-58
2023/12/31 02:00:31;;;;;;;12.20;2.83;;;18.00;78.40;;;;;;5126249;28;20068;-53
2023/12/31 02:02:59;;;;;;;13.63;2.83;;;18.00;78.80;;;;;;5125446;28;20163;-57
2023/12/31 02:05:26;;;;;;;10.07;2.38;;;17.90;79.10;;;;;;5126171;28;20107;-59
2023/12/31 02:07:52;;;;;;;23.80;2.80;;;17.80;79.50;;;;;;5125275;28;20159;-59
2023/12/31 02:10:19;;;;;;;8.02;2.08;;;17.70;79.60;;;;;;5125461;28;20075;-59
2023/12/31 02:12:46;;;;;;;7.50;2.40;;;17.80;79.90;;;;;;5126057;28;20116;-61
2023/12/31 02:15:12;;;;;;;7.65;2.50;;;17.70;80.00;;;;;;5126385;28;20155;-61
2023/12/31 02:17:39;;;;;;;9.30;2.78;;;17.70;79.70;;;;;;5122170;28;20151;-60
2023/12/31 02:20:06;;;;;;;8.30;2.80;;;17.60;79.10;;;;;;5125677;28;20079;-61
2023/12/31 02:22:34;;;;;;;6.03;2.40;;;17.60;78.90;;;;;;5127724;28;20076;-62
2023/12/31 02:25:07;;;;;;;4.93;2.15;;;17.60;79.00;;;;;;5124811;28;20121;-65
2023/12/31 02:27:34;;;;;;;4.38;1.95;;;17.60;79.10;;;;;;5123650;28;20076;-64
2023/12/31 02:30:01;;;;;;;8.23;1.88;;;17.50;79.00;;;;;;5127196;27;20072;-64
2023/12/31 02:32:27;;;;;;;11.13;2.25;;;17.50;79.10;;;;;;5127864;27;20071;-66
2023/12/31 02:34:54;;;;;;;6.90;3.47;;;17.50;78.90;;;;;;5131168;27;20085;-66
2023/12/31 02:37:20;;;;;;;7.95;3.53;;;17.40;79.80;;;;;;5130079;27;20072;-66
2023/12/31 02:39:46;;;;;;;11.05;4.03;;;17.40;79.00;;;;;;5130056;27;20082;-64
2023/12/31 02:42:13;;;;;;;7.07;3.63;;;17.40;78.30;;;;;;5111357;27;20072;-66
2023/12/31 02:44:39;;;;;;;11.60;4.47;;;17.40;78.20;;;;;;5130397;27;20206;-65
2023/12/31 02:47:08;;;;;;;19.00;7.35;;;17.30;78.40;;;;;;5129649;27;20164;-63
2023/12/31 02:49:35;;;;;;;19.27;6.63;;;17.30;78.60;;;;;;5129096;27;20080;-61
2023/12/31 02:52:01;;;;;;;7.25;2.50;;;17.30;78.30;;;;;;5127874;27;20426;-66
2023/12/31 02:54:28;;;;;;;7.57;2.63;;;17.30;78.40;;;;;;5129856;27;20079;-65
2023/12/31 02:56:54;;;;;;;8.73;2.10;;;17.30;78.70;;;;;;5129712;27;20068;-65
2023/12/31 02:59:21;;;;;;;11.40;2.60;;;17.30;78.80;;;;;;5129878;27;20155;-66
2023/12/31 03:01:48;;;;;;;5.85;1.88;;;17.30;79.20;;;;;;5129286;27;20072;-64
2023/12/31 03:04:14;;;;;;;6.40;1.92;;;17.20;79.60;;;;;;5129948;27;20458;-66
2023/12/31 03:06:41;;;;;;;7.82;2.00;;;17.10;80.00;;;;;;5122899;27;20079;-63
2023/12/31 03:09:09;;;;;;;13.55;2.30;;;17.00;80.30;;;;;;5129889;27;20102;-63
2023/12/31 03:11:36;;;;;;;3.30;2.00;;;17.00;80.60;;;;;;5127771;27;20119;-62
2023/12/31 03:14:02;;;;;;;12.27;2.70;;;17.00;80.90;;;;;;5128594;27;20619;-65
2023/12/31 03:16:29;;;;;;;11.45;2.22;;;16.90;80.90;;;;;;5128224;27;20167;-67
2023/12/31 03:18:56;;;;;;;6.25;2.05;;;17.00;81.30;;;;;;5128619;27;20083;-66
2023/12/31 03:21:23;;;;;;;9.45;2.45;;;16.90;81.30;;;;;;5128652;27;20429;-66
2023/12/31 03:23:49;;;;;;;9.25;3.03;;;16.80;81.40;;;;;;5127730;27;20071;-66
2023/12/31 03:26:15;;;;;;;14.07;5.50;;;16.80;81.70;;;;;;5127774;27;20529;-66
2023/12/31 03:28:42;;;;;;;12.15;3.80;;;16.80;81.80;;;;;;5127173;27;20070;-64
2023/12/31 03:31:11;;;;;;;9.18;3.10;;;16.70;82.40;;;;;;5126714;27;20086;-67
2023/12/31 03:33:37;;;;;;;15.30;3.40;;;16.60;83.80;;;;;;5130821;27;20540;-65
2023/12/31 03:36:05;;;;;;;8.82;3.08;;;16.50;83.90;;;;;;5128226;27;20178;-65
2023/12/31 03:38:32;;;;;;;10.05;2.80;;;16.30;84.70;;;;;;5127672;27;20083;-65
2023/12/31 03:40:58;;;;;;;10.23;3.00;;;16.20;85.10;;;;;;5123112;27;20080;-65
2023/12/31 03:43:25;;;;;;;8.50;2.97;;;16.20;85.00;;;;;;5125329;27;20163;-68
2023/12/31 03:45:51;;;;;;;25.83;20.60;;;16.20;84.80;;;;;;5123877;27;20125;-66
2023/12/31 03:48:17;;;;;;;13.00;2.78;;;16.30;84.60;;;;;;5127847;27;20123;-66
2023/12/31 03:50:44;;;;;;;5.00;2.60;;;16.40;84.30;;;;;;5130296;27;20132;-67
2023/12/31 03:53:10;;;;;;;8.80;3.72;;;16.50;84.30;;;;;;5128344;27;20533;-69
2023/12/31 03:55:37;;;;;;;3.85;1.60;;;16.50;84.00;;;;;;5127170;27;20153;-68
2023/12/31 03:58:05;;;;;;;3.95;1.63;;;16.50;83.60;;;;;;5128958;27;20071;-66
2023/12/31 04:00:32;;;;;;;9.23;1.75;;;16.50;84.10;;;;;;5127064;27;20095;-69
2023/12/31 04:02:59;;;;;;;6.03;1.50;;;16.60;83.10;;;;;;5128424;27;20071;-66
2023/12/31 04:05:25;;;;;;;5.20;1.48;;;16.60;83.30;;;;;;5127792;27;20096;-65
2023/12/31 04:07:52;;;;;;;4.65;1.40;;;16.60;83.60;;;;;;5127109;27;20083;-65
2023/12/31 04:10:20;;;;;;;7.65;1.63;;;16.60;83.90;;;;;;5129394;27;20076;-66
2023/12/31 04:12:46;;;;;;;6.07;1.50;;;16.70;83.60;;;;;;5127219;27;20155;-67
2023/12/31 04:15:13;;;;;;;7.05;2.08;;;16.70;83.60;;;;;;5129603;27;20084;-63
2023/12/31 04:17:39;;;;;;;5.57;1.88;;;16.70;83.70;;;;;;5128565;27;20076;-65
2023/12/31 04:20:07;;;;;;;11.52;1.83;;;16.70;83.50;;;;;;5128752;27;20273;-66
2023/12/31 04:22:33;;;;;;;13.38;2.17;;;16.70;83.50;;;;;;5127104;27;20095;-62
2023/12/31 04:25:01;;;;;;;16.50;2.65;;;16.80;83.70;;;;;;5127838;27;20563;-65
2023/12/31 04:27:30;;;;;;;4.32;1.85;;;16.80;83.80;;;;;;5128092;27;20165;-66
2023/12/31 04:29:56;;;;;;;12.15;2.35;;;16.70;83.90;;;;;;5128999;27;20498;-67
2023/12/31 04:32:25;;;;;;;6.60;2.10;;;16.60;84.30;;;;;;5128097;27;20068;-66
2023/12/31 04:34:51;;;;;;;12.88;2.42;;;16.50;85.10;;;;;;5128543;27;20068;-67
2023/12/31 04:37:19;;;;;;;9.43;2.17;;;16.40;85.30;;;;;;5127301;27;20068;-65
2023/12/31 04:39:45;;;;;;;7.63;2.53;;;16.40;85.10;;;;;;5127093;27;20125;-67
2023/12/31 04:42:12;;;;;;;10.10;2.75;;;16.40;85.40;;;;;;5128732;27;21548;-67
2023/12/31 04:44:40;;;;;;;7.45;2.08;;;16.30;85.50;;;;;;5127758;27;20096;-68
2023/12/31 04:47:07;;;;;;;7.80;2.20;;;16.30;85.90;;;;;;5125087;27;20401;-69
2023/12/31 04:49:33;;;;;;;11.00;2.40;;;16.20;86.00;;;;;;5128430;27;20576;-67
2023/12/31 04:52:00;;;;;;;14.23;2.78;;;16.20;85.80;;;;;;5126790;27;20076;-67
2023/12/31 04:54:26;;;;;;;14.13;2.80;;;16.20;85.30;;;;;;5128692;27;20479;-65
2023/12/31 04:56:52;;;;;;;14.82;2.67;;;16.30;84.90;;;;;;5127898;27;20533;-64
2023/12/31 04:59:19;;;;;;;13.60;3.95;;;16.30;84.00;;;;;;5127003;27;20068;-61
2023/12/31 05:01:49;;;;;;;9.73;3.15;;;16.40;83.20;;;;;;5128316;27;20072;-61
2023/12/31 05:04:16;;;;;;;15.95;3.60;;;16.40;82.70;;;;;;5124271;27;20182;-61
2023/12/31 05:06:42;;;;;;;8.77;2.58;;;16.50;82.10;;;;;;5126612;27;20072;-61
2023/12/31 05:09:09;;;;;;;10.32;2.67;;;16.50;82.20;;;;;;5128096;27;20095;-63
2023/12/31 05:11:35;;;;;;;15.52;2.50;;;16.50;82.10;;;;;;5126984;27;20072;-63
2023/12/31 05:14:02;;;;;;;10.07;2.70;;;16.40;82.20;;;;;;5127540;27;20124;-62
2023/12/31 05:16:31;;;;;;;8.55;3.13;;;16.40;82.30;;;;;;5106773;27;20072;-62
2023/12/31 05:19:00;;;;;;;13.88;4.22;;;16.40;82.40;;;;;;5126156;27;20072;-64
2023/12/31 05:21:26;;;;;;;11.73;3.83;;;16.30;82.50;;;;;;5127137;27;20124;-63
2023/12/31 05:24:11;;;;;;;16.60;4.78;;;16.30;82.60;;;;;;5128272;28;20083;-63
2023/12/31 05:26:38;;;;;;;13.05;3.83;;;16.30;82.50;;;;;;5127690;28;20080;-63
2023/12/31 05:29:04;;;;;;;6.78;2.45;;;16.30;82.60;;;;;;5127110;28;20072;-61
2023/12/31 05:31:31;;;;;;;7.97;2.53;;;16.30;82.90;;;;;;5127592;28;20072;-63
2023/12/31 05:33:57;;;;;;;4.80;2.50;;;16.20;83.10;;;;;;5125613;28;20124;-63
2023/12/31 05:36:24;;;;;;;5.07;2.78;;;16.20;83.40;;;;;;5126753;28;20075;-63
2023/12/31 05:38:50;;;;;;;8.77;3.20;;;16.10;83.70;;;;;;5109093;28;20076;-64
2023/12/31 05:41:43;;;;;;;8.48;2.70;;;16.10;84.10;;;;;;5126302;28;20444;-63
2023/12/31 05:44:09;;;;;;;5.75;2.53;;;16.10;84.10;;;;;;5044336;28;20121;-63
2023/12/31 05:46:36;;;;;;;8.10;3.00;;;16.00;83.80;;;;;;5043886;28;20116;-64
2023/12/31 05:49:02;;;;;;;11.52;3.53;;;16.00;83.90;;;;;;5096715;28;20570;-63
2023/12/31 05:51:47;;;;;;;12.32;4.15;;;15.90;84.10;;;;;;5126287;28;20068;-64
2023/12/31 05:54:13;;;;;;;9.32;3.40;;;15.90;84.60;;;;;;5126550;28;20080;-63
2023/12/31 05:56:58;;;;;;;10.88;4.10;;;15.80;84.90;;;;;;5127740;28;20068;-62
2023/12/31 05:59:25;;;;;;;21.38;8.73;;;15.80;85.10;;;;;;5126917;28;20071;-65
2023/12/31 06:01:51;;;;;;;22.33;10.48;;;15.70;85.10;;;;;;5126782;28;20139;-64
2023/12/31 06:04:18;;;;;;;18.52;8.55;;;15.70;85.20;;;;;;5125235;28;20501;-62
2023/12/31 06:07:07;;;;;;;9.15;3.85;;;15.60;86.00;;;;;;5130225;27;20107;-64
2023/12/31 06:09:52;;;;;;;10.00;4.03;;;15.70;85.20;;;;;;5090855;27;20087;-64
2023/12/31 06:12:19;;;;;;;9.90;4.15;;;15.60;85.50;;;;;;5110735;27;20097;-63
2023/12/31 06:14:45;;;;;;;13.35;3.88;;;15.60;85.70;;;;;;5130480;27;20444;-64
2023/12/31 06:17:11;;;;;;;11.63;4.03;;;15.50;86.20;;;;;;5130418;27;20071;-63
2023/12/31 06:19:39;;;;;;;23.13;4.95;;;15.50;86.30;;;;;;5129369;27;20470;-63
2023/12/31 06:22:06;;;;;;;7.60;4.20;;;15.50;86.40;;;;;;5131792;27;20080;-63
2023/12/31 06:24:51;;;;;;;7.57;3.72;;;15.60;86.40;;;;;;5128927;27;20160;-62
2023/12/31 06:27:18;;;;;;;5.80;2.83;;;15.50;86.70;;;;;;5130794;27;20079;-62
2023/12/31 06:29:44;;;;;;;7.30;2.78;;;15.50;87.50;;;;;;5129453;27;20071;-63
2023/12/31 06:32:11;;;;;;;9.00;2.28;;;15.40;87.30;;;;;;5131453;27;20114;-63
2023/12/31 06:34:37;;;;;;;6.68;2.65;;;15.40;87.20;;;;;;5131927;27;20079;-62
2023/12/31 06:37:04;;;;;;;7.38;3.72;;;15.40;87.10;;;;;;5118507;27;20103;-63
2023/12/31 06:39:50;;;;;;;7.60;4.10;;;15.40;86.80;;;;;;5117877;27;20501;-62
2023/12/31 06:42:17;;;;;;;8.70;3.75;;;15.50;86.80;;;;;;5127705;27;20094;-63
2023/12/31 06:44:44;;;;;;;9.13;3.58;;;15.50;86.80;;;;;;5129008;27;20592;-65
2023/12/31 06:47:31;;;;;;;21.10;4.22;;;15.40;87.00;;;;;;5128358;27;20155;-62
2023/12/31 06:50:20;;;;;;;6.47;3.95;;;15.50;86.80;;;;;;5034135;28;20530;-63
2023/12/31 06:53:05;;;;;;;8.52;3.42;;;15.40;87.10;;;;;;5127202;27;20080;-63
2023/12/31 06:55:51;;;;;;;9.35;3.78;;;15.30;87.20;;;;;;5130073;27;20182;-63
2023/12/31 06:58:17;;;;;;;9.40;3.63;;;15.30;87.80;;;;;;5129260;27;20422;-63
2023/12/31 07:00:43;;;;;;;13.20;3.83;;;15.20;87.70;;;;;;5128645;27;20072;-63
2023/12/31 07:03:10;;;;;;;10.00;3.42;;;15.10;88.50;;;;;;5130344;27;20071;-63
2023/12/31 07:05:37;;;;;;;9.25;3.25;;;15.00;88.70;;;;;;5129221;27;20134;-63
2023/12/31 07:08:21;;;;;;;13.25;3.00;;;14.90;89.00;;;;;;5109647;27;20072;-63
2023/12/31 07:11:06;;;;;;;14.70;2.70;;;14.80;88.70;;;;;;5128201;27;20471;-63
2023/12/31 07:14:10;;;;;;;11.10;4.70;;;14.80;88.50;;;;;;5129748;27;20439;-62
2023/12/31 07:17:09;;;;;;;8.00;2.20;;;14.80;88.10;;;;;;5129574;27;20079;-62
2023/12/31 07:19:35;;;;;;;8.35;2.55;;;14.80;87.70;;;;;;5129018;27;20082;-63
2023/12/31 07:22:01;;;;;;;8.80;2.65;;;14.80;88.00;;;;;;5127257;27;20115;-62
2023/12/31 07:24:28;;;;;;;17.23;2.83;;;14.70;88.10;;;;;;5128945;27;20124;-63
2023/12/31 07:26:54;;;;;;;13.60;2.85;;;14.70;88.10;;;;;;5130106;27;20074;-63
2023/12/31 07:29:21;;;;;;;13.38;3.33;;;14.70;88.10;;;;;;5128506;27;20072;-63
2023/12/31 07:32:06;;;;;;;14.95;3.15;;;14.70;88.10;;;;;;5129550;27;20079;-61
2023/12/31 07:34:32;;;;;;;18.05;3.33;;;14.60;87.80;;;;;;5128978;27;20136;-62
2023/12/31 07:36:59;;;;;;;8.70;3.40;;;14.60;87.50;;;;;;5127296;27;20179;-62
2023/12/31 07:40:04;;;;;;;12.23;3.58;;;14.60;87.20;;;;;;5129392;27;20071;-63
2023/12/31 07:42:31;;;;;;;11.90;3.55;;;14.60;87.10;;;;;;5128341;27;20086;-63
2023/12/31 07:45:16;;;;;;;10.05;3.25;;;14.60;87.30;;;;;;5128681;27;20111;-62
2023/12/31 07:48:01;;;;;;;11.70;3.72;;;14.60;87.40;;;;;;5108572;27;20126;-63
2023/12/31 07:50:28;;;;;;;17.52;3.55;;;14.60;87.60;;;;;;5127521;27;20154;-62
2023/12/31 07:52:54;;;;;;;17.38;3.72;;;14.60;88.30;;;;;;5128624;27;20114;-62
2023/12/31 07:55:21;;;;;;;16.02;3.85;;;14.50;88.90;;;;;;5127866;27;20124;-62
2023/12/31 07:57:48;;;;;;;10.40;3.58;;;14.40;89.80;;;;;;5128747;27;20098;-62
2023/12/31 08:00:50;;;;;;;9.20;3.10;;;14.30;90.10;;;;;;5127958;27;20104;-62
2023/12/31 08:03:16;;;;;;;13.52;3.63;;;14.10;90.30;;;;;;5128092;27;20073;-62
2023/12/31 08:05:42;;;;;;;12.35;3.25;;;14.10;90.60;;;;;;5126079;27;20099;-61
2023/12/31 08:08:11;;;;;;;17.20;3.70;;;13.90;91.00;;;;;;5125514;27;20079;-62
2023/12/31 08:10:40;;;;;;;14.00;3.67;;;13.80;91.40;;;;;;5128139;27;20079;-62
2023/12/31 08:13:09;;;;;;;15.82;4.32;;;13.70;91.80;;;;;;5129835;27;20071;-62
2023/12/31 08:15:56;;;;;;;17.92;4.25;;;13.50;92.40;;;;;;5128591;27;20079;-63
2023/12/31 08:18:22;;;;;;;12.77;4.13;;;13.40;92.20;;;;;;5126911;27;20080;-62
2023/12/31 08:20:49;;;;;;;15.80;4.53;;;13.40;92.20;;;;;;5127729;27;20075;-62
2023/12/31 08:23:15;;;;;;;16.63;4.95;;;13.40;92.50;;;;;;5127811;27;20187;-63
2023/12/31 08:25:42;;;;;;;16.20;4.70;;;13.30;92.70;;;;;;5129244;27;20107;-63
2023/12/31 08:28:08;;;;;;;19.38;7.88;;;13.30;92.70;;;;;;5126494;27;20100;-62
2023/12/31 08:30:35;;;;;;;30.00;11.20;;;13.20;92.80;;;;;;5129474;27;20150;-63
2023/12/31 08:33:01;;;;;;;28.67;10.77;;;13.20;92.70;;;;;;5127629;27;20529;-62
2023/12/31 08:35:28;;;;;;;23.88;9.50;;;13.30;93.00;;;;;;5128859;27;20079;-62
2023/12/31 08:38:26;;;;;;;32.13;12.05;;;13.20;93.30;;;;;;5126063;27;20116;-62
2023/12/31 08:40:53;;;;;;;38.63;10.90;;;13.20;93.50;;;;;;5060069;27;20087;-63
2023/12/31 08:43:19;;;;;;;24.70;11.00;;;13.00;94.00;;;;;;5125583;27;20072;-62
2023/12/31 08:46:30;;;;;;;24.10;10.88;;;13.10;93.70;;;;;;5127773;27;20533;-62
2023/12/31 08:48:57;;;;;;;25.25;10.45;;;13.10;93.80;;;;;;5024428;28;20153;-61
2023/12/31 08:51:24;;;;;;;22.33;10.25;;;13.00;93.90;;;;;;5024466;28;20082;-62
2023/12/31 08:54:09;;;;;;;35.40;10.25;;;13.00;93.90;;;;;;5092110;27;20621;-63
2023/12/31 08:56:35;;;;;;;29.15;10.10;;;13.10;94.00;;;;;;5127518;27;20150;-62
2023/12/31 08:59:02;;;;;;;22.90;9.20;;;13.00;94.20;;;;;;5110422;27;20078;-62
2023/12/31 09:01:47;;;;;;;24.40;8.80;;;13.00;94.30;;;;;;5128235;27;20076;-62
2023/12/31 09:04:13;;;;;;;23.35;9.55;;;13.00;94.40;;;;;;5127161;27;20136;-61
2023/12/31 09:07:27;;;;;;;24.55;9.82;;;12.90;94.60;;;;;;5126941;27;20638;-63
2023/12/31 09:09:54;;;;;;;26.52;9.65;;;12.90;94.70;;;;;;5054095;27;20172;-63
2023/12/31 09:12:20;;;;;;;27.67;9.02;;;12.90;94.80;;;;;;5127469;27;20075;-61
2023/12/31 09:14:47;;;;;;;24.45;8.45;;;12.80;95.30;;;;;;5120900;27;20079;-62
2023/12/31 09:17:13;;;;;;;19.67;8.82;;;12.70;95.60;;;;;;5109262;27;20148;-62
2023/12/31 09:19:40;;;;;;;19.55;8.82;;;12.60;95.70;;;;;;5126665;27;20155;-62
2023/12/31 09:22:07;;;;;;;26.92;10.65;;;12.60;96.20;;;;;;5124436;27;20076;-63
2023/12/31 09:24:35;;;;;;;29.15;11.40;;;12.60;96.50;;;;;;5130783;28;20115;-63
2023/12/31 09:27:20;;;;;;;24.17;10.23;;;12.50;96.60;;;;;;5116560;28;20071;-63
2023/12/31 09:30:23;;;;;;;22.42;8.82;;;12.50;96.50;;;;;;5133177;28;20091;-61
2023/12/31 09:32:49;;;;;;;19.02;8.15;;;12.50;96.70;;;;;;5045886;28;20077;-62
2023/12/31 09:35:15;;;;;;;31.13;8.93;;;12.50;97.00;;;;;;5112296;28;20091;-62
2023/12/31 09:37:42;;;;;;;24.67;8.38;;;12.40;96.70;;;;;;5110266;28;20080;-62
2023/12/31 09:40:09;;;;;;;36.72;8.80;;;12.40;97.10;;;;;;5127903;27;20076;-62
2023/12/31 09:42:45;;;;;;;24.80;9.45;;;12.40;97.20;;;;;;5129399;27;20124;-62
2023/12/31 09:45:14;;;;;;;26.10;9.15;;;12.40;97.20;;;;;;5126766;27;20099;-63
2023/12/31 09:47:59;;;;;;;21.98;7.95;;;12.30;97.30;;;;;;5131558;27;20103;-63
2023/12/31 09:50:26;;;;;;;21.77;7.53;;;12.20;97.40;;;;;;5131018;27;20072;-62
2023/12/31 09:53:12;;;;;;;24.48;7.93;;;12.20;97.70;;;;;;5131116;27;20110;-62
2023/12/31 09:55:39;;;;;;;23.45;8.10;;;12.20;98.10;;;;;;5132330;27;20075;-61
2023/12/31 09:58:08;;;;;;;22.50;7.72;;;12.10;98.60;;;;;;5113037;27;20135;-63
2023/12/31 10:00:35;;;;;;;22.35;7.93;;;12.00;99.20;;;;;;5112522;27;20236;-64
2023/12/31 10:03:21;;;;;;;21.08;7.88;;;12.00;99.20;;;;;;5128123;27;20071;-64
2023/12/31 10:06:06;;;;;;;24.42;7.53;;;12.00;99.30;;;;;;5113004;27;21320;-63
2023/12/31 10:08:34;;;;;;;19.95;8.63;;;12.00;99.50;;;;;;5110448;27;20076;-64
2023/12/31 10:11:19;;;;;;;22.60;7.30;;;11.90;99.80;;;;;;5130747;27;20080;-63
2023/12/31 10:14:12;;;;;;;26.65;7.65;;;11.90;99.80;;;;;;5130670;27;20084;-62
2023/12/31 10:17:11;;;;;;;26.50;8.80;;;12.00;99.70;;;;;;5027884;28;20086;-63
2023/12/31 10:19:40;;;;;;;19.85;7.68;;;11.80;99.90;;;;;;5017262;28;20173;-63
2023/12/31 10:22:08;;;;;;;16.77;7.50;;;11.80;99.90;;;;;;5117991;27;20110;-62
2023/12/31 10:24:34;;;;;;;18.10;8.05;;;11.80;99.90;;;;;;5129060;27;20108;-63
2023/12/31 10:27:05;;;;;;;26.30;7.35;;;11.70;99.90;;;;;;5130453;27;20076;-62
2023/12/31 10:29:53;;;;;;;21.63;7.22;;;11.70;99.90;;;;;;5112054;27;20111;-62
2023/12/31 10:32:21;;;;;;;23.15;8.10;;;11.70;99.90;;;;;;5129110;27;20075;-63
2023/12/31 10:35:03;;;;;;;24.50;7.38;;;11.70;99.90;;;;;;5128734;27;20086;-62
2023/12/31 10:37:29;;;;;;;23.42;8.82;;;11.70;99.90;;;;;;5112137;27;20120;-63
2023/12/31 10:40:18;;;;;;;29.50;8.13;;;11.60;99.90;;;;;;5131054;27;20537;-63
2023/12/31 10:43:02;;;;;;;25.23;8.65;;;11.60;99.90;;;;;;5129400;27;20101;-63
2023/12/31 10:45:32;;;;;;;27.83;8.65;;;11.60;99.90;;;;;;5129022;27;20099;-63
2023/12/31 10:48:03;;;;;;;23.67;8.27;;;11.60;99.90;;;;;;5128515;27;20628;-62
2023/12/31 10:50:36;;;;;;;20.80;8.65;;;11.60;99.90;;;;;;5130196;27;20075;-63
2023/12/31 10:53:07;;;;;;;26.75;9.48;;;11.60;99.90;;;;;;5111873;27;20529;-63
2023/12/31 10:55:34;;;;;;;22.77;9.38;;;11.60;99.90;;;;;;5130297;27;20084;-63
2023/12/31 10:58:03;;;;;;;30.40;11.23;;;11.60;99.90;;;;;;5129750;27;20072;-63
2023/12/31 11:00:48;;;;;;;32.20;11.23;;;11.50;99.90;;;;;;5130801;27;20065;-63
2023/12/31 11:03:15;;;;;;;29.20;10.88;;;11.50;99.90;;;;;;5128807;27;20118;-62
2023/12/31 11:05:44;;;;;;;28.60;10.52;;;11.50;99.90;;;;;;5129425;27;20092;-62
2023/12/31 11:08:12;;;;;;;22.30;9.60;;;11.40;99.90;;;;;;5127434;27;20084;-61
2023/12/31 11:10:38;;;;;;;30.27;9.02;;;11.40;99.90;;;;;;5127763;27;20477;-62
2023/12/31 11:13:06;;;;;;;20.85;9.57;;;11.40;99.90;;;;;;5127935;27;20076;-63
2023/12/31 11:15:33;;;;;;;24.50;8.93;;;11.40;99.90;;;;;;5129455;27;20068;-62
2023/12/31 11:18:16;;;;;;;29.30;9.80;;;11.40;99.90;;;;;;5130650;27;20552;-63
2023/12/31 11:21:14;;;;;;;29.15;11.35;;;11.30;99.90;;;;;;5128525;27;20080;-61
2023/12/31 11:23:46;;;;;;;37.17;12.95;;;11.30;99.90;;;;;;5057475;27;20140;-65
2023/12/31 11:26:13;;;;;;;29.27;14.43;;;11.20;99.90;;;;;;5127397;27;20236;-63
2023/12/31 11:28:50;;;;;;;33.78;16.20;;;11.90;99.90;;;;;;5128292;27;20071;-63
2023/12/31 11:31:17;;;;;;;36.08;16.95;;;12.30;99.90;;;;;;5128769;27;20120;-63
2023/12/31 11:33:45;;;;;;;39.45;14.65;;;12.60;99.90;;;;;;5129899;27;20088;-63
2023/12/31 11:36:13;;;;;;;64.80;31.23;;;12.40;99.90;;;;;;5127068;27;20172;-63
2023/12/31 11:38:58;;;;;;;37.33;14.05;;;12.70;99.90;;;;;;5129489;27;20161;-63
2023/12/31 11:41:50;;;;;;;41.33;13.30;;;13.00;99.90;;;;;;5127618;27;20529;-63
2023/12/31 11:44:46;;;;;;;34.45;13.88;;;12.80;99.90;;;;;;5130725;27;20082;-63
2023/12/31 11:47:29;;;;;;;30.92;12.57;;;12.70;99.90;;;;;;5126304;27;20076;-63
2023/12/31 11:49:59;;;;;;;26.67;11.57;;;12.50;99.90;;;;;;5128702;27;20132;-63
2023/12/31 11:52:48;;;;;;;28.73;11.95;;;12.30;99.90;;;;;;5128900;27;20075;-63
2023/12/31 11:55:36;;;;;;;32.15;11.55;;;12.30;99.90;;;;;;5129070;27;20189;-63
2023/12/31 11:58:04;;;;;;;26.65;11.55;;;12.20;99.90;;;;;;5111099;27;20127;-63
2023/12/31 12:00:32;;;;;;;23.80;11.90;;;12.20;99.90;;;;;;5129240;27;20071;-63
2023/12/31 12:03:02;;;;;;;29.90;12.30;;;12.30;99.90;;;;;;5126496;27;20498;-63
2023/12/31 12:05:29;;;;;;;32.22;12.57;;;12.30;99.90;;;;;;5128509;27;20104;-63
2023/12/31 12:08:14;;;;;;;24.98;13.07;;;12.10;99.90;;;;;;5127763;27;20067;-63
2023/12/31 12:10:44;;;;;;;33.97;12.13;;;11.90;99.90;;;;;;5130415;27;20087;-63
2023/12/31 12:13:29;;;;;;;29.98;13.10;;;11.90;99.90;;;;;;5128765;27;20162;-63
2023/12/31 12:15:57;;;;;;;28.55;13.52;;;12.10;99.90;;;;;;5128446;27;20075;-63
2023/12/31 12:18:26;;;;;;;35.53;14.25;;;12.10;99.90;;;;;;5129152;27;20470;-63
2023/12/31 12:20:55;;;;;;;29.13;13.25;;;12.00;99.90;;;;;;5130269;27;20076;-63
2023/12/31 12:23:24;;;;;;;31.17;13.20;;;12.00;99.90;;;;;;5135783;27;20182;-63
2023/12/31 12:25:51;;;;;;;37.58;16.13;;;12.00;99.90;;;;;;5136005;27;20122;-63
2023/12/31 12:28:19;;;;;;;30.50;15.18;;;12.00;99.90;;;;;;5130046;27;20072;-63
2023/12/31 12:30:45;;;;;;;37.72;16.40;;;11.90;99.90;;;;;;5129998;27;20072;-62
2023/12/31 12:33:12;;;;;;;38.88;15.93;;;12.00;99.90;;;;;;5130641;27;20075;-63
2023/12/31 12:35:58;;;;;;;34.80;15.95;;;11.80;99.90;;;;;;5130052;27;20522;-63
2023/12/31 12:38:26;;;;;;;38.28;15.75;;;11.90;99.90;;;;;;5126894;27;20097;-63
2023/12/31 12:41:12;;;;;;;39.72;16.13;;;11.90;99.90;;;;;;5128658;27;20083;-63
2023/12/31 12:43:38;;;;;;;34.15;15.15;;;11.90;99.90;;;;;;5110079;27;20105;-63
2023/12/31 12:46:11;;;;;;;34.38;14.85;;;11.90;99.90;;;;;;5127638;27;20099;-63
2023/12/31 12:49:15;;;;;;;33.85;12.43;;;11.70;99.90;;;;;;5127453;27;20104;-63
2023/12/31 12:51:44;;;;;;;36.72;12.68;;;11.70;99.90;;;;;;5127376;27;20148;-63
2023/12/31 12:54:11;;;;;;;23.17;11.98;;;11.70;99.90;;;;;;5127485;27;20552;-63
2023/12/31 12:56:56;;;;;;;31.55;12.45;;;11.50;99.90;;;;;;5126710;27;20095;-63